sensor_id;sensor_type;location;lat;lon;timestamp;P1;durP1;ratioP1;P2;durP2;ratioP2
50821;SDS011;36794;51.212;6.980;2023-09-30T00:01:09;10.13;;;3.67;;
50821;SDS011;36794;51.212;6.980;2023-09-30T00:03:43;11.10;;;3.93;;
50821;SDS011;36794;51.212;6.980;2023-09-30T00:06:28;10.07;;;4.10;;
50821;SDS011;36794;51.212;6.980;2023-09-30T00:09:02;10.50;;;3.60;;
50821;SDS011;36794;51.212;6.980;2023-09-30T00:11:36;14.83;;;4.23;;
50821;SDS011;36794;51.212;6.980;2023-09-30T00:14:05;13.17;;;4.60;;
50821;SDS011;36794;51.212;6.980;2023-09-30T00:16:42;12.37;;;4.20;;
50821;SDS011;36794;51.212;6.980;2023-09-30T00:19:11;8.70;;;4.00;;
50821;SDS011;36794;51.212;6.980;2023-09-30T00:21:44;12.47;;;4.40;;
50821;SDS011;36794;51.212;6.980;2023-09-30T00:24:16;9.27;;;3.87;;
50821;SDS011;36794;51.212;6.980;2023-09-30T00:26:53;15.38;;;5.18;;
50821;SDS011;36794;51.212;6.980;2023-09-30T00:29:19;11.47;;;4.17;;
50821;SDS011;36794;51.212;6.980;2023-09-30T00:31:51;14.97;;;4.77;;
50821;SDS011;36794;51.212;6.980;2023-09-30T00:34:22;13.23;;;4.47;;
50821;SDS011;36794;51.212;6.980;2023-09-30T00:36:48;11.67;;;4.40;;
50821;SDS011;36794;51.212;6.980;2023-09-30T00:39:17;11.40;;;4.60;;
50821;SDS011;36794;51.212;6.980;2023-09-30T00:41:46;14.00;;;4.17;;
50821;SDS011;36794;51.212;6.980;2023-09-30T00:44:17;9.30;;;4.40;;
50821;SDS011;36794;51.212;6.980;2023-09-30T00:46:51;10.10;;;4.10;;
50821;SDS011;36794;51.212;6.980;2023-09-30T00:49:21;12.53;;;4.77;;
50821;SDS011;36794;51.212;6.980;2023-09-30T00:51:47;13.47;;;4.27;;
50821;SDS011;36794;51.212;6.980;2023-09-30T00:54:14;12.83;;;4.37;;
50821;SDS011;36794;51.212;6.980;2023-09-30T00:56:44;12.83;;;4.87;;
50821;SDS011;36794;51.212;6.980;2023-09-30T00:59:13;18.07;;;5.03;;
50821;SDS011;36794;51.212;6.980;2023-09-30T01:01:53;15.83;;;5.27;;
50821;SDS011;36794;51.212;6.980;2023-09-30T01:04:31;14.00;;;4.40;;
50821;SDS011;36794;51.212;6.980;2023-09-30T01:07:02;8.95;;;4.38;;
50821;SDS011;36794;51.212;6.980;2023-09-30T01:12:40;17.43;;;4.53;;
50821;SDS011;36794;51.212;6.980;2023-09-30T01:15:07;15.30;;;4.70;;
50821;SDS011;36794;51.212;6.980;2023-09-30T01:17:39;18.33;;;4.63;;
50821;SDS011;36794;51.212;6.980;2023-09-30T01:20:28;15.77;;;4.83;;
50821;SDS011;36794;51.212;6.980;2023-09-30T01:23:05;13.33;;;4.40;;
50821;SDS011;36794;51.212;6.980;2023-09-30T01:27:58;15.20;;;4.30;;
50821;SDS011;36794;51.212;6.980;2023-09-30T01:30:30;13.73;;;4.90;;
50821;SDS011;36794;51.212;6.980;2023-09-30T01:32:58;13.17;;;4.43;;
50821;SDS011;36794;51.212;6.980;2023-09-30T01:35:34;10.57;;;4.47;;
50821;SDS011;36794;51.212;6.980;2023-09-30T01:38:08;18.67;;;4.60;;
50821;SDS011;36794;51.212;6.980;2023-09-30T01:40:42;13.80;;;4.53;;
50821;SDS011;36794;51.212;6.980;2023-09-30T01:43:22;13.53;;;5.47;;
50821;SDS011;36794;51.212;6.980;2023-09-30T01:45:50;14.10;;;4.67;;
50821;SDS011;36794;51.212;6.980;2023-09-30T01:48:24;13.37;;;4.30;;
50821;SDS011;36794;51.212;6.980;2023-09-30T01:50:52;11.07;;;3.90;;
50821;SDS011;36794;51.212;6.980;2023-09-30T01:53:18;17.50;;;4.10;;
50821;SDS011;36794;51.212;6.980;2023-09-30T01:55:46;9.00;;;4.27;;
50821;SDS011;36794;51.212;6.980;2023-09-30T01:58:15;12.20;;;4.70;;
50821;SDS011;36794;51.212;6.980;2023-09-30T02:00:44;14.00;;;4.57;;
50821;SDS011;36794;51.212;6.980;2023-09-30T02:03:23;13.83;;;4.87;;
50821;SDS011;36794;51.212;6.980;2023-09-30T02:05:52;13.83;;;4.40;;
50821;SDS011;36794;51.212;6.980;2023-09-30T02:08:20;9.43;;;4.07;;
50821;SDS011;36794;51.212;6.980;2023-09-30T02:10:52;10.27;;;4.07;;
50821;SDS011;36794;51.212;6.980;2023-09-30T02:13:33;11.63;;;4.10;;
50821;SDS011;36794;51.212;6.980;2023-09-30T02:16:01;14.37;;;3.90;;
50821;SDS011;36794;51.212;6.980;2023-09-30T02:18:30;16.53;;;3.70;;
50821;SDS011;36794;51.212;6.980;2023-09-30T02:21:00;11.13;;;4.00;;
50821;SDS011;36794;51.212;6.980;2023-09-30T02:23:26;19.23;;;5.20;;
50821;SDS011;36794;51.212;6.980;2023-09-30T02:25:54;14.03;;;4.70;;
50821;SDS011;36794;51.212;6.980;2023-09-30T02:28:20;16.03;;;4.70;;
50821;SDS011;36794;51.212;6.980;2023-09-30T02:30:46;10.60;;;3.97;;
50821;SDS011;36794;51.212;6.980;2023-09-30T02:33:15;11.27;;;4.30;;
50821;SDS011;36794;51.212;6.980;2023-09-30T02:35:44;13.20;;;4.20;;
50821;SDS011;36794;51.212;6.980;2023-09-30T02:38:11;9.00;;;3.53;;
50821;SDS011;36794;51.212;6.980;2023-09-30T02:40:41;12.07;;;3.90;;
50821;SDS011;36794;51.212;6.980;2023-09-30T02:43:11;14.93;;;3.93;;
50821;SDS011;36794;51.212;6.980;2023-09-30T02:45:37;11.70;;;4.30;;
50821;SDS011;36794;51.212;6.980;2023-09-30T02:48:03;14.93;;;4.30;;
50821;SDS011;36794;51.212;6.980;2023-09-30T02:50:30;11.63;;;3.70;;
50821;SDS011;36794;51.212;6.980;2023-09-30T02:52:56;18.73;;;4.90;;
50821;SDS011;36794;51.212;6.980;2023-09-30T02:55:22;12.73;;;4.13;;
50821;SDS011;36794;51.212;6.980;2023-09-30T02:57:48;13.27;;;4.30;;
50821;SDS011;36794;51.212;6.980;2023-09-30T03:00:21;13.13;;;4.60;;
50821;SDS011;36794;51.212;6.980;2023-09-30T03:03:01;15.20;;;4.03;;
50821;SDS011;36794;51.212;6.980;2023-09-30T03:05:36;10.87;;;4.57;;
50821;SDS011;36794;51.212;6.980;2023-09-30T03:08:04;13.17;;;4.20;;
50821;SDS011;36794;51.212;6.980;2023-09-30T03:10:32;12.07;;;4.17;;
50821;SDS011;36794;51.212;6.980;2023-09-30T03:12:59;8.97;;;3.97;;
50821;SDS011;36794;51.212;6.980;2023-09-30T03:18:10;13.37;;;4.33;;
50821;SDS011;36794;51.212;6.980;2023-09-30T03:20:43;12.10;;;3.57;;
50821;SDS011;36794;51.212;6.980;2023-09-30T03:23:22;9.37;;;3.83;;
50821;SDS011;36794;51.212;6.980;2023-09-30T03:25:58;18.55;;;4.80;;
50821;SDS011;36794;51.212;6.980;2023-09-30T03:28:25;14.57;;;4.73;;
50821;SDS011;36794;51.212;6.980;2023-09-30T03:30:51;13.33;;;4.93;;
50821;SDS011;36794;51.212;6.980;2023-09-30T03:33:17;14.67;;;6.17;;
50821;SDS011;36794;51.212;6.980;2023-09-30T03:35:48;13.57;;;5.40;;
50821;SDS011;36794;51.212;6.980;2023-09-30T03:38:23;13.10;;;4.53;;
50821;SDS011;36794;51.212;6.980;2023-09-30T03:40:52;14.10;;;4.27;;
50821;SDS011;36794;51.212;6.980;2023-09-30T03:43:19;10.13;;;3.73;;
50821;SDS011;36794;51.212;6.980;2023-09-30T03:45:46;13.47;;;4.20;;
50821;SDS011;36794;51.212;6.980;2023-09-30T03:48:15;13.50;;;5.13;;
50821;SDS011;36794;51.212;6.980;2023-09-30T03:50:46;13.40;;;5.10;;
50821;SDS011;36794;51.212;6.980;2023-09-30T03:53:18;17.40;;;5.40;;
50821;SDS011;36794;51.212;6.980;2023-09-30T03:55:45;11.73;;;4.50;;
50821;SDS011;36794;51.212;6.980;2023-09-30T03:58:11;14.77;;;5.27;;
50821;SDS011;36794;51.212;6.980;2023-09-30T04:00:43;14.97;;;5.73;;
50821;SDS011;36794;51.212;6.980;2023-09-30T04:03:12;20.40;;;6.47;;
50821;SDS011;36794;51.212;6.980;2023-09-30T04:05:40;20.93;;;8.30;;
50821;SDS011;36794;51.212;6.980;2023-09-30T04:08:12;21.73;;;9.07;;
50821;SDS011;36794;51.212;6.980;2023-09-30T04:10:40;28.43;;;10.90;;
50821;SDS011;36794;51.212;6.980;2023-09-30T04:13:06;24.67;;;10.17;;
50821;SDS011;36794;51.212;6.980;2023-09-30T04:15:35;26.37;;;10.60;;
50821;SDS011;36794;51.212;6.980;2023-09-30T04:18:04;29.77;;;11.63;;
50821;SDS011;36794;51.212;6.980;2023-09-30T04:20:36;28.63;;;11.73;;
50821;SDS011;36794;51.212;6.980;2023-09-30T04:23:04;31.33;;;12.25;;
50821;SDS011;36794;51.212;6.980;2023-09-30T04:25:35;27.50;;;11.30;;
50821;SDS011;36794;51.212;6.980;2023-09-30T04:28:03;25.07;;;11.13;;
50821;SDS011;36794;51.212;6.980;2023-09-30T04:30:29;30.67;;;11.10;;
50821;SDS011;36794;51.212;6.980;2023-09-30T04:33:16;29.07;;;10.60;;
50821;SDS011;36794;51.212;6.980;2023-09-30T04:35:45;22.67;;;9.73;;
50821;SDS011;36794;51.212;6.980;2023-09-30T04:38:12;23.77;;;10.63;;
50821;SDS011;36794;51.212;6.980;2023-09-30T04:40:38;24.83;;;10.63;;
50821;SDS011;36794;51.212;6.980;2023-09-30T04:43:06;22.23;;;10.90;;
50821;SDS011;36794;51.212;6.980;2023-09-30T04:45:35;23.67;;;11.00;;
50821;SDS011;36794;51.212;6.980;2023-09-30T04:48:01;29.03;;;11.93;;
50821;SDS011;36794;51.212;6.980;2023-09-30T04:50:38;25.20;;;11.90;;
50821;SDS011;36794;51.212;6.980;2023-09-30T04:53:04;24.52;;;10.93;;
50821;SDS011;36794;51.212;6.980;2023-09-30T04:55:35;24.80;;;11.50;;
50821;SDS011;36794;51.212;6.980;2023-09-30T04:58:02;22.33;;;11.40;;
50821;SDS011;36794;51.212;6.980;2023-09-30T05:00:30;28.87;;;12.17;;
50821;SDS011;36794;51.212;6.980;2023-09-30T05:02:59;18.03;;;9.50;;
50821;SDS011;36794;51.212;6.980;2023-09-30T05:05:37;21.50;;;9.87;;
50821;SDS011;36794;51.212;6.980;2023-09-30T05:08:03;18.70;;;9.87;;
50821;SDS011;36794;51.212;6.980;2023-09-30T05:10:43;24.07;;;9.57;;
50821;SDS011;36794;51.212;6.980;2023-09-30T05:13:09;20.33;;;9.23;;
50821;SDS011;36794;51.212;6.980;2023-09-30T05:15:41;21.17;;;9.80;;
50821;SDS011;36794;51.212;6.980;2023-09-30T05:18:17;23.37;;;9.07;;
50821;SDS011;36794;51.212;6.980;2023-09-30T05:20:44;16.23;;;8.37;;
50821;SDS011;36794;51.212;6.980;2023-09-30T05:23:10;17.87;;;8.60;;
50821;SDS011;36794;51.212;6.980;2023-09-30T05:25:37;15.93;;;8.17;;
50821;SDS011;36794;51.212;6.980;2023-09-30T05:28:03;20.23;;;8.40;;
50821;SDS011;36794;51.212;6.980;2023-09-30T05:30:31;18.43;;;7.97;;
50821;SDS011;36794;51.212;6.980;2023-09-30T05:32:58;13.83;;;7.63;;
50821;SDS011;36794;51.212;6.980;2023-09-30T05:35:24;13.10;;;7.50;;
50821;SDS011;36794;51.212;6.980;2023-09-30T05:37:50;16.23;;;8.47;;
50821;SDS011;36794;51.212;6.980;2023-09-30T05:40:21;22.43;;;7.83;;
50821;SDS011;36794;51.212;6.980;2023-09-30T05:42:54;22.37;;;8.60;;
50821;SDS011;36794;51.212;6.980;2023-09-30T05:45:22;19.90;;;7.83;;
50821;SDS011;36794;51.212;6.980;2023-09-30T05:47:49;19.63;;;7.77;;
50821;SDS011;36794;51.212;6.980;2023-09-30T05:50:17;20.00;;;8.00;;
50821;SDS011;36794;51.212;6.980;2023-09-30T05:52:52;17.73;;;8.00;;
50821;SDS011;36794;51.212;6.980;2023-09-30T05:55:18;20.37;;;7.57;;
50821;SDS011;36794;51.212;6.980;2023-09-30T05:57:47;15.70;;;6.90;;
50821;SDS011;36794;51.212;6.980;2023-09-30T06:00:17;17.57;;;7.87;;
50821;SDS011;36794;51.212;6.980;2023-09-30T06:02:51;18.30;;;7.90;;
50821;SDS011;36794;51.212;6.980;2023-09-30T06:05:17;13.17;;;6.83;;
50821;SDS011;36794;51.212;6.980;2023-09-30T06:07:46;15.20;;;6.47;;
50821;SDS011;36794;51.212;6.980;2023-09-30T06:10:13;16.20;;;7.43;;
50821;SDS011;36794;51.212;6.980;2023-09-30T06:12:48;16.03;;;7.33;;
50821;SDS011;36794;51.212;6.980;2023-09-30T06:15:15;14.35;;;6.80;;
50821;SDS011;36794;51.212;6.980;2023-09-30T06:17:41;21.60;;;6.90;;
50821;SDS011;36794;51.212;6.980;2023-09-30T06:20:15;16.60;;;5.88;;
50821;SDS011;36794;51.212;6.980;2023-09-30T06:22:43;13.35;;;6.50;;
50821;SDS011;36794;51.212;6.980;2023-09-30T06:25:10;15.65;;;7.03;;
50821;SDS011;36794;51.212;6.980;2023-09-30T06:27:36;14.45;;;6.80;;
50821;SDS011;36794;51.212;6.980;2023-09-30T06:30:03;14.82;;;6.35;;
50821;SDS011;36794;51.212;6.980;2023-09-30T06:32:30;20.35;;;6.35;;
50821;SDS011;36794;51.212;6.980;2023-09-30T06:34:58;14.27;;;6.03;;
50821;SDS011;36794;51.212;6.980;2023-09-30T06:37:25;13.85;;;6.13;;
50821;SDS011;36794;51.212;6.980;2023-09-30T06:39:51;20.13;;;6.70;;
50821;SDS011;36794;51.212;6.980;2023-09-30T06:42:18;14.73;;;6.57;;
50821;SDS011;36794;51.212;6.980;2023-09-30T06:44:44;15.43;;;5.43;;
50821;SDS011;36794;51.212;6.980;2023-09-30T06:47:11;11.50;;;5.10;;
50821;SDS011;36794;51.212;6.980;2023-09-30T06:49:37;13.75;;;5.55;;
50821;SDS011;36794;51.212;6.980;2023-09-30T06:52:04;10.63;;;5.68;;
50821;SDS011;36794;51.212;6.980;2023-09-30T06:54:30;12.63;;;5.07;;
50821;SDS011;36794;51.212;6.980;2023-09-30T06:56:56;11.50;;;5.40;;
50821;SDS011;36794;51.212;6.980;2023-09-30T06:59:22;11.20;;;5.32;;
50821;SDS011;36794;51.212;6.980;2023-09-30T07:01:50;10.93;;;5.13;;
50821;SDS011;36794;51.212;6.980;2023-09-30T07:04:16;12.52;;;5.68;;
50821;SDS011;36794;51.212;6.980;2023-09-30T07:06:42;11.13;;;5.63;;
50821;SDS011;36794;51.212;6.980;2023-09-30T07:09:11;16.10;;;6.35;;
50821;SDS011;36794;51.212;6.980;2023-09-30T07:11:37;16.20;;;6.95;;
50821;SDS011;36794;51.212;6.980;2023-09-30T07:14:09;14.68;;;6.35;;
50821;SDS011;36794;51.212;6.980;2023-09-30T07:16:35;16.90;;;6.95;;
50821;SDS011;36794;51.212;6.980;2023-09-30T07:19:01;14.77;;;6.40;;
50821;SDS011;36794;51.212;6.980;2023-09-30T07:21:28;16.80;;;5.97;;
50821;SDS011;36794;51.212;6.980;2023-09-30T07:23:54;14.27;;;6.57;;
50821;SDS011;36794;51.212;6.980;2023-09-30T07:26:26;11.10;;;6.40;;
50821;SDS011;36794;51.212;6.980;2023-09-30T07:28:53;15.65;;;6.13;;
50821;SDS011;36794;51.212;6.980;2023-09-30T07:31:21;16.83;;;6.55;;
50821;SDS011;36794;51.212;6.980;2023-09-30T07:33:48;16.88;;;6.70;;
50821;SDS011;36794;51.212;6.980;2023-09-30T07:36:14;14.63;;;6.90;;
50821;SDS011;36794;51.212;6.980;2023-09-30T07:38:40;17.70;;;6.95;;
50821;SDS011;36794;51.212;6.980;2023-09-30T07:41:06;21.48;;;8.68;;
50821;SDS011;36794;51.212;6.980;2023-09-30T07:43:35;16.95;;;6.78;;
50821;SDS011;36794;51.212;6.980;2023-09-30T07:46:07;19.98;;;7.55;;
50821;SDS011;36794;51.212;6.980;2023-09-30T07:48:35;17.27;;;7.65;;
50821;SDS011;36794;51.212;6.980;2023-09-30T07:51:01;17.40;;;7.57;;
50821;SDS011;36794;51.212;6.980;2023-09-30T07:53:27;19.15;;;8.45;;
50821;SDS011;36794;51.212;6.980;2023-09-30T07:55:54;17.63;;;7.95;;
50821;SDS011;36794;51.212;6.980;2023-09-30T07:58:20;20.33;;;8.13;;
50821;SDS011;36794;51.212;6.980;2023-09-30T08:00:48;18.10;;;8.48;;
50821;SDS011;36794;51.212;6.980;2023-09-30T08:03:15;23.48;;;8.90;;
50821;SDS011;36794;51.212;6.980;2023-09-30T08:05:41;19.90;;;8.50;;
50821;SDS011;36794;51.212;6.980;2023-09-30T08:08:13;18.90;;;8.48;;
50821;SDS011;36794;51.212;6.980;2023-09-30T08:10:39;18.42;;;8.98;;
50821;SDS011;36794;51.212;6.980;2023-09-30T08:13:06;19.95;;;9.60;;
50821;SDS011;36794;51.212;6.980;2023-09-30T08:15:32;20.30;;;9.20;;
50821;SDS011;36794;51.212;6.980;2023-09-30T08:17:58;20.70;;;10.18;;
50821;SDS011;36794;51.212;6.980;2023-09-30T08:20:24;26.40;;;9.50;;
50821;SDS011;36794;51.212;6.980;2023-09-30T08:22:50;16.77;;;8.65;;
50821;SDS011;36794;51.212;6.980;2023-09-30T08:25:16;21.40;;;10.13;;
50821;SDS011;36794;51.212;6.980;2023-09-30T08:27:42;19.15;;;9.45;;
50821;SDS011;36794;51.212;6.980;2023-09-30T08:30:10;22.38;;;10.48;;
50821;SDS011;36794;51.212;6.980;2023-09-30T08:32:36;22.40;;;9.18;;
50821;SDS011;36794;51.212;6.980;2023-09-30T08:35:03;19.85;;;10.10;;
50821;SDS011;36794;51.212;6.980;2023-09-30T08:37:29;19.13;;;9.93;;
50821;SDS011;36794;51.212;6.980;2023-09-30T08:39:56;18.30;;;10.35;;
50821;SDS011;36794;51.212;6.980;2023-09-30T08:42:22;15.10;;;9.05;;
50821;SDS011;36794;51.212;6.980;2023-09-30T08:44:51;22.50;;;9.77;;
50821;SDS011;36794;51.212;6.980;2023-09-30T08:47:19;16.92;;;8.68;;
50821;SDS011;36794;51.212;6.980;2023-09-30T08:49:46;19.67;;;8.70;;
50821;SDS011;36794;51.212;6.980;2023-09-30T08:52:14;16.30;;;8.32;;
50821;SDS011;36794;51.212;6.980;2023-09-30T08:54:40;18.23;;;8.50;;
50821;SDS011;36794;51.212;6.980;2023-09-30T08:57:07;20.42;;;9.00;;
50821;SDS011;36794;51.212;6.980;2023-09-30T08:59:35;24.58;;;9.32;;
50821;SDS011;36794;51.212;6.980;2023-09-30T09:02:01;17.88;;;8.10;;
50821;SDS011;36794;51.212;6.980;2023-09-30T09:04:28;15.48;;;8.40;;
50821;SDS011;36794;51.212;6.980;2023-09-30T09:06:56;16.23;;;8.23;;
50821;SDS011;36794;51.212;6.980;2023-09-30T09:09:22;14.95;;;7.13;;
50821;SDS011;36794;51.212;6.980;2023-09-30T09:11:48;19.08;;;8.40;;
50821;SDS011;36794;51.212;6.980;2023-09-30T09:14:14;15.35;;;8.30;;
50821;SDS011;36794;51.212;6.980;2023-09-30T09:16:53;17.90;;;8.55;;
50821;SDS011;36794;51.212;6.980;2023-09-30T09:19:20;17.75;;;8.43;;
50821;SDS011;36794;51.212;6.980;2023-09-30T09:21:56;14.57;;;7.32;;
50821;SDS011;36794;51.212;6.980;2023-09-30T09:24:29;19.08;;;7.57;;
50821;SDS011;36794;51.212;6.980;2023-09-30T09:27:07;14.73;;;6.43;;
50821;SDS011;36794;51.212;6.980;2023-09-30T09:29:34;16.52;;;7.50;;
50821;SDS011;36794;51.212;6.980;2023-09-30T09:32:08;17.20;;;7.30;;
50821;SDS011;36794;51.212;6.980;2023-09-30T09:34:34;13.43;;;7.53;;
50821;SDS011;36794;51.212;6.980;2023-09-30T09:37:12;18.65;;;7.53;;
50821;SDS011;36794;51.212;6.980;2023-09-30T09:39:39;15.57;;;6.82;;
50821;SDS011;36794;51.212;6.980;2023-09-30T09:42:04;18.83;;;7.65;;
50821;SDS011;36794;51.212;6.980;2023-09-30T09:44:31;18.40;;;7.32;;
50821;SDS011;36794;51.212;6.980;2023-09-30T09:46:58;19.52;;;7.32;;
50821;SDS011;36794;51.212;6.980;2023-09-30T09:49:26;16.30;;;7.93;;
50821;SDS011;36794;51.212;6.980;2023-09-30T09:51:54;13.95;;;6.75;;
50821;SDS011;36794;51.212;6.980;2023-09-30T09:54:20;16.35;;;7.45;;
50821;SDS011;36794;51.212;6.980;2023-09-30T09:56:47;18.02;;;7.00;;
50821;SDS011;36794;51.212;6.980;2023-09-30T09:59:15;13.48;;;6.35;;
50821;SDS011;36794;51.212;6.980;2023-09-30T10:01:41;16.00;;;7.25;;
50821;SDS011;36794;51.212;6.980;2023-09-30T10:04:07;12.52;;;5.57;;
50821;SDS011;36794;51.212;6.980;2023-09-30T10:06:33;14.63;;;6.25;;
50821;SDS011;36794;51.212;6.980;2023-09-30T10:09:05;13.50;;;5.38;;
50821;SDS011;36794;51.212;6.980;2023-09-30T10:11:32;17.80;;;6.05;;
50821;SDS011;36794;51.212;6.980;2023-09-30T10:13:59;10.90;;;5.00;;
50821;SDS011;36794;51.212;6.980;2023-09-30T10:16:47;10.88;;;5.60;;
50821;SDS011;36794;51.212;6.980;2023-09-30T10:19:17;14.32;;;5.53;;
50821;SDS011;36794;51.212;6.980;2023-09-30T10:24:39;11.60;;;5.00;;
50821;SDS011;36794;51.212;6.980;2023-09-30T10:27:27;13.35;;;5.60;;
50821;SDS011;36794;51.212;6.980;2023-09-30T10:29:57;13.93;;;5.18;;
50821;SDS011;36794;51.212;6.980;2023-09-30T10:33:11;13.43;;;4.97;;
50821;SDS011;36794;51.212;6.980;2023-09-30T10:35:12;12.57;;;4.80;;
50821;SDS011;36794;51.212;6.980;2023-09-30T10:37:38;13.68;;;4.85;;
50821;SDS011;36794;51.212;6.980;2023-09-30T10:40:04;13.50;;;4.35;;
50821;SDS011;36794;51.212;6.980;2023-09-30T10:42:47;13.15;;;4.28;;
50821;SDS011;36794;51.212;6.980;2023-09-30T10:48:20;11.90;;;4.95;;
50821;SDS011;36794;51.212;6.980;2023-09-30T10:50:49;11.98;;;3.88;;
50821;SDS011;36794;51.212;6.980;2023-09-30T10:53:15;10.32;;;4.10;;
50821;SDS011;36794;51.212;6.980;2023-09-30T10:55:44;12.93;;;4.22;;
50821;SDS011;36794;51.212;6.980;2023-09-30T10:58:12;9.38;;;4.00;;
50821;SDS011;36794;51.212;6.980;2023-09-30T11:00:38;11.77;;;4.03;;
50821;SDS011;36794;51.212;6.980;2023-09-30T11:03:06;9.45;;;3.53;;
50821;SDS011;36794;51.212;6.980;2023-09-30T11:05:32;8.43;;;3.33;;
50821;SDS011;36794;51.212;6.980;2023-09-30T11:07:59;7.65;;;3.40;;
50821;SDS011;36794;51.212;6.980;2023-09-30T11:10:28;9.43;;;3.78;;
50821;SDS011;36794;51.212;6.980;2023-09-30T11:12:54;8.13;;;3.50;;
50821;SDS011;36794;51.212;6.980;2023-09-30T11:15:21;11.57;;;4.03;;
50821;SDS011;36794;51.212;6.980;2023-09-30T11:17:47;8.75;;;3.17;;
50821;SDS011;36794;51.212;6.980;2023-09-30T11:20:13;8.30;;;2.85;;
50821;SDS011;36794;51.212;6.980;2023-09-30T11:22:39;9.50;;;3.45;;
50821;SDS011;36794;51.212;6.980;2023-09-30T11:25:05;6.93;;;3.20;;
50821;SDS011;36794;51.212;6.980;2023-09-30T11:27:32;8.25;;;3.13;;
50821;SDS011;36794;51.212;6.980;2023-09-30T11:29:58;9.52;;;3.53;;
50821;SDS011;36794;51.212;6.980;2023-09-30T11:32:24;8.73;;;3.45;;
50821;SDS011;36794;51.212;6.980;2023-09-30T11:34:54;10.20;;;3.67;;
50821;SDS011;36794;51.212;6.980;2023-09-30T11:37:20;10.00;;;3.65;;
50821;SDS011;36794;51.212;6.980;2023-09-30T11:39:49;8.88;;;3.38;;
50821;SDS011;36794;51.212;6.980;2023-09-30T11:42:15;8.50;;;3.35;;
50821;SDS011;36794;51.212;6.980;2023-09-30T11:44:45;9.05;;;2.80;;
50821;SDS011;36794;51.212;6.980;2023-09-30T11:47:15;10.02;;;3.63;;
50821;SDS011;36794;51.212;6.980;2023-09-30T11:49:45;8.82;;;2.97;;
50821;SDS011;36794;51.212;6.980;2023-09-30T11:52:25;7.45;;;3.28;;
50821;SDS011;36794;51.212;6.980;2023-09-30T11:54:51;8.25;;;3.33;;
50821;SDS011;36794;51.212;6.980;2023-09-30T11:57:18;11.82;;;3.78;;
50821;SDS011;36794;51.212;6.980;2023-09-30T11:59:45;7.95;;;3.10;;
50821;SDS011;36794;51.212;6.980;2023-09-30T12:02:11;8.70;;;2.50;;
50821;SDS011;36794;51.212;6.980;2023-09-30T12:04:37;6.38;;;2.60;;
50821;SDS011;36794;51.212;6.980;2023-09-30T12:07:03;8.77;;;2.92;;
50821;SDS011;36794;51.212;6.980;2023-09-30T12:09:29;8.43;;;2.65;;
50821;SDS011;36794;51.212;6.980;2023-09-30T12:11:56;7.20;;;2.60;;
50821;SDS011;36794;51.212;6.980;2023-09-30T12:14:25;6.93;;;2.88;;
50821;SDS011;36794;51.212;6.980;2023-09-30T12:16:52;7.20;;;2.50;;
50821;SDS011;36794;51.212;6.980;2023-09-30T12:19:19;10.48;;;2.95;;
50821;SDS011;36794;51.212;6.980;2023-09-30T12:21:46;11.48;;;2.90;;
50821;SDS011;36794;51.212;6.980;2023-09-30T12:24:13;10.55;;;2.75;;
50821;SDS011;36794;51.212;6.980;2023-09-30T12:26:44;11.55;;;3.13;;
50821;SDS011;36794;51.212;6.980;2023-09-30T12:29:14;9.25;;;2.50;;
50821;SDS011;36794;51.212;6.980;2023-09-30T12:31:42;8.02;;;2.70;;
50821;SDS011;36794;51.212;6.980;2023-09-30T12:34:08;10.75;;;2.90;;
50821;SDS011;36794;51.212;6.980;2023-09-30T12:36:34;6.75;;;2.47;;
50821;SDS011;36794;51.212;6.980;2023-09-30T12:39:00;8.82;;;2.40;;
50821;SDS011;36794;51.212;6.980;2023-09-30T12:41:28;10.30;;;2.50;;
50821;SDS011;36794;51.212;6.980;2023-09-30T12:43:57;6.07;;;2.47;;
50821;SDS011;36794;51.212;6.980;2023-09-30T12:46:23;7.72;;;2.65;;
50821;SDS011;36794;51.212;6.980;2023-09-30T12:48:50;9.38;;;2.45;;
50821;SDS011;36794;51.212;6.980;2023-09-30T12:51:16;10.60;;;2.42;;
50821;SDS011;36794;51.212;6.980;2023-09-30T12:53:43;7.63;;;2.40;;
50821;SDS011;36794;51.212;6.980;2023-09-30T12:56:10;7.40;;;2.35;;
50821;SDS011;36794;51.212;6.980;2023-09-30T12:58:36;7.88;;;1.80;;
50821;SDS011;36794;51.212;6.980;2023-09-30T13:01:03;8.23;;;2.30;;
50821;SDS011;36794;51.212;6.980;2023-09-30T13:03:31;9.48;;;2.42;;
50821;SDS011;36794;51.212;6.980;2023-09-30T13:05:57;10.02;;;2.35;;
50821;SDS011;36794;51.212;6.980;2023-09-30T13:08:23;6.55;;;2.35;;
50821;SDS011;36794;51.212;6.980;2023-09-30T13:10:49;7.75;;;2.80;;
50821;SDS011;36794;51.212;6.980;2023-09-30T13:13:15;5.38;;;2.20;;
50821;SDS011;36794;51.212;6.980;2023-09-30T13:15:44;8.50;;;2.85;;
50821;SDS011;36794;51.212;6.980;2023-09-30T13:18:10;8.25;;;2.40;;
50821;SDS011;36794;51.212;6.980;2023-09-30T13:20:36;11.45;;;2.72;;
50821;SDS011;36794;51.212;6.980;2023-09-30T13:23:02;10.27;;;2.63;;
50821;SDS011;36794;51.212;6.980;2023-09-30T13:25:28;7.28;;;3.15;;
50821;SDS011;36794;51.212;6.980;2023-09-30T13:27:54;10.02;;;2.67;;
50821;SDS011;36794;51.212;6.980;2023-09-30T13:30:20;6.22;;;2.47;;
50821;SDS011;36794;51.212;6.980;2023-09-30T13:32:47;5.10;;;2.13;;
50821;SDS011;36794;51.212;6.980;2023-09-30T13:35:13;9.02;;;2.53;;
50821;SDS011;36794;51.212;6.980;2023-09-30T13:37:39;10.05;;;2.53;;
50821;SDS011;36794;51.212;6.980;2023-09-30T13:40:06;6.35;;;2.20;;
50821;SDS011;36794;51.212;6.980;2023-09-30T13:42:36;6.28;;;2.28;;
50821;SDS011;36794;51.212;6.980;2023-09-30T13:45:02;5.43;;;2.15;;
50821;SDS011;36794;51.212;6.980;2023-09-30T13:47:28;8.98;;;2.58;;
50821;SDS011;36794;51.212;6.980;2023-09-30T13:49:54;7.55;;;2.30;;
50821;SDS011;36794;51.212;6.980;2023-09-30T13:52:21;5.20;;;1.95;;
50821;SDS011;36794;51.212;6.980;2023-09-30T13:54:47;8.38;;;2.20;;
50821;SDS011;36794;51.212;6.980;2023-09-30T13:57:15;8.55;;;3.13;;
50821;SDS011;36794;51.212;6.980;2023-09-30T13:59:41;6.25;;;2.20;;
50821;SDS011;36794;51.212;6.980;2023-09-30T14:02:10;7.40;;;2.13;;
50821;SDS011;36794;51.212;6.980;2023-09-30T14:04:37;6.57;;;2.10;;
50821;SDS011;36794;51.212;6.980;2023-09-30T14:07:03;7.45;;;2.50;;
50821;SDS011;36794;51.212;6.980;2023-09-30T14:09:30;9.52;;;2.22;;
50821;SDS011;36794;51.212;6.980;2023-09-30T14:11:56;13.90;;;2.40;;
50821;SDS011;36794;51.212;6.980;2023-09-30T14:14:23;9.73;;;2.80;;
50821;SDS011;36794;51.212;6.980;2023-09-30T14:16:52;6.20;;;1.90;;
50821;SDS011;36794;51.212;6.980;2023-09-30T14:19:18;5.53;;;2.05;;
50821;SDS011;36794;51.212;6.980;2023-09-30T14:21:44;5.50;;;2.05;;
50821;SDS011;36794;51.212;6.980;2023-09-30T14:24:10;7.70;;;2.30;;
50821;SDS011;36794;51.212;6.980;2023-09-30T14:26:36;13.63;;;2.40;;
50821;SDS011;36794;51.212;6.980;2023-09-30T14:29:05;6.07;;;1.92;;
50821;SDS011;36794;51.212;6.980;2023-09-30T14:31:31;7.85;;;2.08;;
50821;SDS011;36794;51.212;6.980;2023-09-30T14:33:57;9.38;;;2.58;;
50821;SDS011;36794;51.212;6.980;2023-09-30T14:36:23;6.45;;;1.90;;
50821;SDS011;36794;51.212;6.980;2023-09-30T14:38:51;9.35;;;2.30;;
50821;SDS011;36794;51.212;6.980;2023-09-30T14:41:17;9.35;;;1.88;;
50821;SDS011;36794;51.212;6.980;2023-09-30T14:43:43;7.72;;;1.85;;
50821;SDS011;36794;51.212;6.980;2023-09-30T14:46:10;5.38;;;1.75;;
50821;SDS011;36794;51.212;6.980;2023-09-30T14:48:37;6.65;;;1.98;;
50821;SDS011;36794;51.212;6.980;2023-09-30T14:51:04;5.65;;;1.88;;
50821;SDS011;36794;51.212;6.980;2023-09-30T14:53:31;5.75;;;1.98;;
50821;SDS011;36794;51.212;6.980;2023-09-30T14:55:57;5.22;;;2.13;;
50821;SDS011;36794;51.212;6.980;2023-09-30T14:58:23;5.25;;;1.65;;